Time;durP1;ratioP1;P1;durP2;ratioP2;P2;SDS_P1;SDS_P2;PMS_P1;PMS_P2;Temp;Humidity;BMP_temperature;BMP_pressure;BME280_temperature;BME280_humidity;BME280_pressure;Samples;Min_cycle;Max_cycle;Signal;HPM_P1;HPM_P2
2022/04/26 03:36:51;;;;;;;;;11.00;6.75;;;;;8.22;86.05;-18698.88;5024783;28;11333;-70
2022/04/26 03:39:20;;;;;;;;;7.50;7.50;;;;;8.24;86.34;-18699.47;5009322;28;10956;-69
2022/04/26 03:41:48;;;;;;;;;9.50;8.00;;;;;8.23;85.99;-18699.16;5021221;28;10913;-70
2022/04/26 03:44:15;;;;;;;;;8.75;8.25;;;;;8.29;86.02;-18700.97;5010512;28;11651;-70
2022/04/26 03:46:41;;;;;;;;;15.50;11.50;;;;;8.26;86.38;-18700.06;5023281;28;10798;-69
2022/04/26 03:49:08;;;;;;;;;8.00;7.75;;;;;8.28;85.88;-18700.66;5025633;28;11109;-69
2022/04/26 03:51:34;;;;;;;;;9.25;9.25;;;;;8.21;85.23;-18698.56;5030201;28;11144;-69
2022/04/26 03:54:01;;;;;;;;;7.50;7.50;;;;;8.21;86.40;-18698.72;5007454;28;10967;-69
2022/04/26 03:56:32;;;;;;;;;10.75;8.00;;;;;8.23;86.23;-18699.31;5025687;28;11047;-70
2022/04/26 03:58:59;;;;;;;;;11.00;10.00;;;;;8.32;86.14;-18701.88;5030318;28;10850;-69
2022/04/26 04:01:25;;;;;;;;;9.50;8.00;;;;;8.29;86.34;-18701.13;5029174;28;11035;-69
2022/04/26 04:03:52;;;;;;;;;7.00;4.00;;;;;8.25;85.66;-18699.78;5027534;28;11091;-70
2022/04/26 04:06:19;;;;;;;;;10.00;7.75;;;;;8.16;86.14;-18697.19;5029918;28;10833;-70
2022/04/26 04:08:45;;;;;;;;;7.00;7.00;;;;;8.23;86.31;-18699.16;5025487;28;11012;-70
2022/04/26 04:11:12;;;;;;;;;8.75;8.75;;;;;8.16;86.26;-18697.19;5015715;28;10850;-70
2022/04/26 04:13:38;;;;;;;;;7.00;5.00;;;;;8.30;86.34;-18701.28;5026720;28;10811;-69
2022/04/26 04:16:04;;;;;;;;;9.25;8.25;;;;;8.14;86.27;-18696.59;5028737;28;10781;-70
2022/04/26 04:21:16;;;;;;;;;12.50;11.50;;;;;8.13;86.91;-18696.28;5030036;28;10895;-69
2022/04/26 04:23:43;;;;;;;;;8.50;8.50;;;;;8.12;87.43;-18695.84;5012101;28;10940;-70
2022/04/26 04:26:09;;;;;;;;;9.50;9.00;;;;;8.13;87.52;-18696.13;5009944;28;10840;-69
2022/04/26 04:28:36;;;;;;;;;9.50;8.75;;;;;8.14;87.13;-18696.59;5009240;28;10890;-71
2022/04/26 04:31:03;;;;;;;;;9.50;9.50;;;;;8.12;87.26;-18696.00;5028138;28;11022;-71
2022/04/26 04:33:29;;;;;;;;;7.25;7.00;;;;;8.13;86.88;-18696.13;5028104;28;10940;-71
2022/04/26 04:35:56;;;;;;;;;10.25;9.50;;;;;8.06;87.26;-18694.19;5028840;28;10952;-69
2022/04/26 04:38:23;;;;;;;;;10.50;9.00;;;;;8.09;87.33;-18694.94;5023888;28;10935;-70
2022/04/26 04:40:49;;;;;;;;;6.00;6.00;;;;;8.04;87.29;-18693.56;4991851;28;11135;-70
2022/04/26 04:43:16;;;;;;;;;7.00;7.00;;;;;8.05;87.49;-18693.72;5022767;28;11064;-69
2022/04/26 04:45:43;;;;;;;;;6.50;5.50;;;;;7.98;87.72;-18691.75;5004980;28;10935;-70
2022/04/26 04:48:10;;;;;;;;;11.25;11.00;;;;;7.91;87.62;-18689.78;5028339;28;11229;-69
2022/04/26 04:50:36;;;;;;;;;7.00;7.00;;;;;7.97;87.82;-18691.63;5029079;28;11049;-70
2022/04/26 04:53:03;;;;;;;;;10.00;9.25;;;;;8.12;87.84;-18696.00;5017456;28;10761;-70
2022/04/26 04:55:29;;;;;;;;;11.50;9.00;;;;;8.15;87.38;-18696.75;5014494;28;10884;-69
2022/04/26 04:57:56;;;;;;;;;13.00;9.50;;;;;8.10;87.40;-18695.22;5030596;28;11822;-71
2022/04/26 05:00:22;;;;;;;;;10.00;10.00;;;;;8.06;87.10;-18694.19;5026251;28;11066;-71
2022/04/26 05:02:49;;;;;;;;;13.00;12.00;;;;;7.96;87.08;-18691.16;5012189;28;10960;-71
2022/04/26 05:05:15;;;;;;;;;13.50;10.50;;;;;8.07;87.42;-18694.47;5014512;28;11414;-71
2022/04/26 05:07:42;;;;;;;;;8.75;8.75;;;;;8.02;87.22;-18693.13;5020667;28;11181;-71
2022/04/26 05:10:09;;;;;;;;;10.50;9.25;;;;;8.07;87.09;-18694.47;5027182;28;11093;-71
2022/04/26 05:12:35;;;;;;;;;8.00;7.00;;;;;8.10;86.40;-18695.22;5031833;28;11187;-70
2022/04/26 05:15:03;;;;;;;;;8.75;8.00;;;;;8.08;86.79;-18694.63;5031423;28;11744;-70
2022/04/26 05:17:29;;;;;;;;;8.00;8.00;;;;;8.22;85.89;-18699.00;5013307;28;10905;-71
2022/04/26 05:19:57;;;;;;;;;10.25;8.50;;;;;8.30;85.64;-18701.44;5027695;28;10879;-70
2022/04/26 05:22:24;;;;;;;;;7.75;7.75;;;;;8.26;85.47;-18700.22;5027073;28;11687;-70
2022/04/26 05:24:53;;;;;;;;;9.75;9.75;;;;;8.79;84.71;-18715.78;5023864;28;11690;-70
2022/04/26 05:27:24;;;;;;;;;13.75;11.00;;;;;9.06;81.37;-18723.78;5017912;28;81872;-69
2022/04/26 05:29:51;;;;;;;;;8.75;7.00;;;;;9.35;81.49;-18732.38;5005564;28;11103;-70
2022/04/26 05:32:22;;;;;;;;;11.50;8.50;;;;;9.33;79.46;-18731.78;5030339;28;11052;-69
2022/04/26 05:34:55;;;;;;;;;8.75;8.75;;;;;8.88;80.56;-18718.50;5030922;28;11021;-69
2022/04/26 05:37:22;;;;;;;;;6.50;5.50;;;;;8.76;82.12;-18714.88;5031141;28;10976;-69
2022/04/26 05:39:48;;;;;;;;;13.00;11.00;;;;;8.69;82.24;-18712.91;5030705;28;11663;-69
2022/04/26 05:42:14;;;;;;;;;10.50;8.75;;;;;8.59;82.87;-18709.88;5027343;28;11030;-69
2022/04/26 05:44:42;;;;;;;;;9.00;9.00;;;;;8.47;82.98;-18706.28;5024540;28;11748;-70
2022/04/26 05:47:09;;;;;;;;;6.00;6.00;;;;;8.45;83.68;-18705.66;5023108;28;11891;-68
2022/04/26 05:49:36;;;;;;;;;3.00;3.00;;;;;8.39;83.46;-18704.00;5028959;28;10836;-71
2022/04/26 05:52:04;;;;;;;;;8.50;5.50;;;;;8.49;83.82;-18707.03;5026974;28;10962;-69
2022/04/26 05:54:31;;;;;;;;;8.00;6.00;;;;;8.43;84.11;-18705.22;5032101;28;10758;-68
2022/04/26 05:56:58;;;;;;;;;7.75;7.50;;;;;8.33;84.43;-18702.19;5031741;28;10938;-69
2022/04/26 05:59:24;;;;;;;;;10.25;8.00;;;;;8.44;84.55;-18705.38;5014144;28;10897;-69
2022/04/26 06:01:51;;;;;;;;;6.00;6.00;;;;;8.39;84.15;-18704.00;5025542;28;10924;-68
2022/04/26 06:04:18;;;;;;;;;11.50;6.00;;;;;8.57;83.90;-18709.28;5026783;28;10984;-69
2022/04/26 06:06:45;;;;;;;;;12.25;9.50;;;;;8.58;83.04;-18709.59;5013222;28;11024;-69
2022/04/26 06:09:13;;;;;;;;;11.00;11.00;;;;;8.75;82.51;-18714.72;5027414;28;10917;-69
2022/04/26 06:11:40;;;;;;;;;7.50;7.50;;;;;9.22;80.71;-18728.63;5028453;28;10942;-69
2022/04/26 06:14:07;;;;;;;;;9.00;6.50;;;;;9.48;78.47;-18736.47;5028887;28;10918;-69
2022/04/26 06:16:34;;;;;;;;;9.00;6.75;;;;;9.66;77.84;-18741.75;5014334;28;10891;-69
2022/04/26 06:19:00;;;;;;;;;8.00;8.00;;;;;9.63;76.95;-18740.84;5014605;28;10773;-69
2022/04/26 06:21:27;;;;;;;;;7.00;6.00;;;;;9.87;76.82;-18748.09;5023741;28;10860;-69
2022/04/26 06:23:53;;;;;;;;;8.75;7.25;;;;;10.09;76.17;-18754.44;5029736;28;10700;-70
2022/04/26 06:26:20;;;;;;;;;6.00;6.00;;;;;10.14;75.62;-18756.09;5014734;28;11045;-69
2022/04/26 06:28:47;;;;;;;;;7.75;6.50;;;;;9.86;76.86;-18747.63;5011642;28;10812;-70
2022/04/26 06:31:13;;;;;;;;;7.00;7.00;;;;;10.25;76.50;-18759.25;5011657;28;10598;-69
2022/04/26 06:33:40;;;;;;;;;5.75;5.75;;;;;10.49;74.02;-18766.34;5022148;28;10755;-69
2022/04/26 06:36:06;;;;;;;;;11.50;10.75;;;;;10.59;73.12;-18769.22;5026231;28;10698;-69
2022/04/26 06:38:33;;;;;;;;;8.25;8.25;;;;;10.70;73.77;-18772.53;4996627;28;10668;-69
2022/04/26 06:41:01;;;;;;;;;5.50;5.00;;;;;10.92;72.95;-18779.19;5027055;28;10772;-69
2022/04/26 06:43:29;;;;;;;;;7.75;7.75;;;;;10.92;71.89;-18779.03;5021391;28;10493;-68
2022/04/26 06:45:56;;;;;;;;;6.50;6.50;;;;;10.88;72.06;-18777.97;5025652;28;10500;-69
2022/04/26 06:48:22;;;;;;;;;6.75;6.75;;;;;10.55;73.63;-18768.16;5030796;28;10489;-70
2022/04/26 06:50:49;;;;;;;;;8.00;8.00;;;;;10.40;73.62;-18763.78;5029483;28;10609;-70
2022/04/26 06:53:16;;;;;;;;;7.00;7.00;;;;;10.41;73.94;-18763.94;5030578;28;10469;-70
2022/04/26 06:55:42;;;;;;;;;6.75;4.25;;;;;10.52;74.90;-18767.09;5026253;28;10519;-70
2022/04/26 06:58:09;;;;;;;;;7.00;5.75;;;;;10.14;75.73;-18756.09;5028361;28;11154;-69
2022/04/26 07:00:35;;;;;;;;;8.25;7.25;;;;;9.95;75.53;-18750.34;5029062;28;10461;-70
2022/04/26 07:03:02;;;;;;;;;12.50;10.00;;;;;10.05;76.33;-18753.38;5027749;28;10638;-69
2022/04/26 07:05:29;;;;;;;;;9.00;6.00;;;;;10.01;75.59;-18752.16;5022833;28;10658;-69
2022/04/26 07:07:55;;;;;;;;;9.00;7.75;;;;;9.95;76.05;-18750.34;5028134;28;10558;-69
2022/04/26 07:10:22;;;;;;;;;11.00;8.00;;;;;10.01;77.16;-18752.00;5024488;28;10591;-70
2022/04/26 07:12:49;;;;;;;;;10.00;7.50;;;;;9.92;76.32;-18749.28;5027387;28;11380;-69
2022/04/26 07:15:15;;;;;;;;;9.00;8.00;;;;;9.73;77.04;-18743.88;5028735;28;10545;-69
2022/04/26 07:17:43;;;;;;;;;11.50;9.25;;;;;9.61;76.77;-18740.09;5030516;28;10837;-70
2022/04/26 07:20:10;;;;;;;;;8.50;8.50;;;;;9.82;75.68;-18746.44;5008846;28;10817;-69
2022/04/26 07:22:37;;;;;;;;;7.25;7.00;;;;;9.83;76.27;-18746.88;5003220;28;11449;-70
2022/04/26 07:25:07;;;;;;;;;9.75;9.50;;;;;9.81;76.01;-18746.28;5015157;28;10629;-70
2022/04/26 07:27:34;;;;;;;;;11.50;9.75;;;;;9.82;75.75;-18746.44;5012274;28;10855;-71
2022/04/26 07:30:00;;;;;;;;;6.75;5.75;;;;;10.08;75.36;-18754.28;5014883;28;10830;-70
2022/04/26 07:35:12;;;;;;;;;6.75;5.50;;;;;10.74;72.65;-18773.91;5020256;28;11394;-70
2022/04/26 07:37:39;;;;;;;;;13.25;12.50;;;;;10.90;71.33;-18778.56;5025398;28;10687;-70
2022/04/26 07:40:07;;;;;;;;;7.50;6.50;;;;;11.35;69.81;-18792.00;5019349;28;10740;-70
2022/04/26 07:42:33;;;;;;;;;8.75;7.00;;;;;11.54;68.17;-18797.41;5027011;28;10643;-70
2022/04/26 07:45:00;;;;;;;;;5.75;5.75;;;;;11.99;68.33;-18810.84;5026043;28;10556;-72
2022/04/26 07:47:28;;;;;;;;;6.50;5.25;;;;;11.98;66.73;-18810.69;5017657;28;10303;-70
2022/04/26 07:49:55;;;;;;;;;6.50;6.50;;;;;11.77;66.96;-18804.22;5014840;28;11053;-70
2022/04/26 07:52:23;;;;;;;;;6.50;6.50;;;;;11.51;65.91;-18796.66;5012378;28;10411;-70
2022/04/26 07:54:50;;;;;;;;;8.75;7.50;;;;;11.01;68.31;-18781.75;5021589;28;10471;-70
2022/04/26 07:57:17;;;;;;;;;5.00;5.00;;;;;10.61;69.29;-18769.97;5020592;28;10330;-70
2022/04/26 07:59:43;;;;;;;;;7.25;7.25;;;;;10.39;70.20;-18763.47;5014851;28;10332;-70
2022/04/26 08:02:10;;;;;;;;;6.50;6.50;;;;;10.36;70.59;-18762.44;5015803;28;10447;-69
2022/04/26 08:04:44;;;;;;;;;3.50;3.00;;;;;10.47;70.17;-18765.75;5014234;28;10652;-70
2022/04/26 08:07:10;;;;;;;;;4.00;4.00;;;;;10.45;68.06;-18765.28;5009587;28;10494;-70
2022/04/26 08:09:39;;;;;;;;;7.50;5.75;;;;;10.37;68.38;-18762.88;5011876;28;10483;-69
2022/04/26 08:12:06;;;;;;;;;4.00;4.00;;;;;10.45;68.06;-18765.16;5012851;28;10463;-70
2022/04/26 08:14:33;;;;;;;;;7.75;6.00;;;;;10.74;68.14;-18773.91;5012395;28;10525;-70
2022/04/26 08:16:59;;;;;;;;;3.00;3.00;;;;;11.20;65.02;-18787.47;5011802;28;10532;-70
2022/04/26 08:19:26;;;;;;;;;5.75;5.00;;;;;11.17;66.32;-18786.41;5016355;28;10750;-71
2022/04/26 08:21:53;;;;;;;;;6.00;6.00;;;;;11.08;65.84;-18783.84;5014804;28;10484;-72
2022/04/26 08:27:25;;;;;;;;;8.75;8.75;;;;;10.98;65.61;-18780.97;5013891;28;10652;-70
2022/04/26 08:29:53;;;;;;;;;7.50;6.25;;;;;10.98;65.72;-18780.84;5015250;28;10417;-71
2022/04/26 08:32:22;;;;;;;;;6.00;6.00;;;;;11.15;63.78;-18785.97;5001628;28;10415;-71
2022/04/26 08:34:49;;;;;;;;;7.00;4.75;;;;;11.49;62.53;-18795.91;5001016;28;10508;-71
2022/04/26 08:37:15;;;;;;;;;8.00;6.25;;;;;11.40;62.54;-18793.50;5020084;28;11173;-70
2022/04/26 08:39:42;;;;;;;;;5.00;5.00;;;;;11.61;60.77;-18799.69;5020040;28;10371;-70
2022/04/26 08:42:08;;;;;;;;;6.00;5.25;;;;;11.59;60.87;-18798.94;5019366;28;10258;-71
2022/04/26 08:44:35;;;;;;;;;2.00;2.00;;;;;11.76;60.21;-18803.91;5020741;28;10294;-71
2022/04/26 08:52:49;;;;;;;;;5.75;3.00;;;;;12.09;57.02;-18813.72;5025399;28;10227;-71
2022/04/26 08:55:16;;;;;;;;;6.00;6.00;;;;;12.30;57.73;-18820.03;5026596;28;10306;-71
2022/04/26 08:57:43;;;;;;;;;1.50;1.50;;;;;12.55;57.31;-18827.56;5025506;28;11300;-70
2022/04/26 09:00:13;;;;;;;;;7.50;5.75;;;;;12.63;54.73;-18829.97;5027155;28;10246;-71
2022/04/26 09:02:39;;;;;;;;;5.00;5.00;;;;;12.94;54.22;-18839.19;5027006;28;10184;-71
2022/04/26 09:05:11;;;;;;;;;9.50;6.50;;;;;12.87;55.41;-18837.06;5023766;28;10809;-71
2022/04/26 09:07:40;;;;;;;;;7.75;5.50;;;;;12.81;55.15;-18835.25;5028034;28;10251;-71
2022/04/26 09:10:16;;;;;;;;;4.25;4.25;;;;;13.17;53.85;-18845.97;5009609;28;10079;-71
2022/04/26 09:13:09;;;;;;;;;6.50;6.00;;;;;13.38;52.78;-18852.13;5028161;28;10104;-71
2022/04/26 09:15:41;;;;;;;;;6.00;6.00;;;;;13.26;50.79;-18848.53;5013133;28;10094;-71
2022/04/26 09:18:15;;;;;;;;;6.00;6.00;;;;;13.05;52.17;-18842.19;5028176;28;10740;-71
2022/04/26 09:20:43;;;;;;;;;9.25;6.25;;;;;13.06;51.58;-18842.63;5030281;28;10065;-71
2022/04/26 09:23:15;;;;;;;;;3.00;2.75;;;;;13.49;50.17;-18855.31;5029310;28;10104;-71
2022/04/26 09:25:42;;;;;;;;;6.00;5.50;;;;;13.29;50.20;-18849.44;5029120;28;10028;-71
2022/04/26 09:28:09;;;;;;;;;5.75;5.75;;;;;13.55;50.09;-18857.25;5029793;28;10672;-71
2022/04/26 09:30:36;;;;;;;;;5.50;5.50;;;;;13.48;50.93;-18855.16;5029776;28;10033;-70
2022/04/26 09:33:02;;;;;;;;;6.25;6.00;;;;;13.38;50.31;-18852.00;5030151;28;10184;-70
2022/04/26 09:35:31;;;;;;;;;6.50;6.50;;;;;13.28;49.43;-18848.97;5029600;28;9953;-70
2022/04/26 09:38:02;;;;;;;;;7.75;7.25;;;;;13.14;49.73;-18844.91;5025726;28;10082;-70
2022/04/26 09:40:34;;;;;;;;;4.50;4.50;;;;;13.52;49.80;-18856.34;5026745;28;10004;-71
2022/04/26 09:43:01;;;;;;;;;6.50;6.50;;;;;13.58;50.50;-18858.00;5028872;28;9816;-71
2022/04/26 09:45:27;;;;;;;;;7.75;5.50;;;;;13.88;48.60;-18866.75;5029774;28;9987;-71
2022/04/26 09:47:58;;;;;;;;;5.25;5.25;;;;;14.16;49.50;-18875.19;5029509;28;9999;-70
2022/04/26 09:50:25;;;;;;;;;6.75;6.75;;;;;13.95;49.68;-18869.00;5029069;28;10852;-71
2022/04/26 09:52:55;;;;;;;;;5.00;5.00;;;;;13.88;50.59;-18866.91;5028960;28;9684;-71
2022/04/26 09:55:22;;;;;;;;;5.50;5.50;;;;;14.35;50.07;-18880.91;5029462;28;9794;-71
2022/04/26 09:57:51;;;;;;;;;5.00;5.00;;;;;14.30;47.72;-18879.25;5023873;28;9640;-71
2022/04/26 10:00:19;;;;;;;;;5.00;5.00;;;;;14.44;47.78;-18883.63;5011700;28;9743;-71
2022/04/26 10:02:50;;;;;;;;;4.25;4.25;;;;;14.53;47.15;-18886.03;5029049;28;9767;-71
2022/04/26 10:05:21;;;;;;;;;9.00;7.75;;;;;14.15;48.73;-18875.03;5029262;28;9710;-71
2022/04/26 10:07:50;;;;;;;;;11.50;8.75;;;;;14.25;48.60;-18877.88;5026016;28;9638;-71
2022/04/26 10:10:20;;;;;;;;;4.75;4.75;;;;;13.82;49.35;-18865.09;5021166;28;9765;-71
2022/04/26 10:13:31;;;;;;;;;6.00;6.00;;;;;14.28;48.93;-18878.78;5017956;28;9613;-71
2022/04/26 10:15:35;;;;;;;;;7.50;6.25;;;;;13.95;49.65;-18868.84;5016373;28;9788;-71
2022/04/26 10:18:43;;;;;;;;;5.25;5.00;;;;;14.22;49.66;-18877.00;5015208;28;9788;-72
2022/04/26 10:21:30;;;;;;;;;7.50;7.50;;;;;13.66;50.91;-18860.28;5015235;28;9761;-71
2022/04/26 10:24:01;;;;;;;;;5.75;4.00;;;;;13.89;51.80;-18867.19;5000997;28;9790;-72
2022/04/26 10:26:28;;;;;;;;;7.75;4.25;;;;;13.51;51.61;-18855.91;5017426;28;9625;-69
2022/04/26 10:29:06;;;;;;;;;6.00;6.00;;;;;13.61;53.41;-18858.91;5016868;28;9726;-69
2022/04/26 10:31:44;;;;;;;;;7.25;6.25;;;;;14.16;49.79;-18875.19;5016282;28;9688;-69
2022/04/26 10:34:23;;;;;;;;;5.00;3.50;;;;;14.28;50.03;-18878.66;5014778;28;10555;-69
2022/04/26 10:36:55;;;;;;;;;5.00;5.00;;;;;14.17;51.16;-18875.47;5019495;28;9622;-69
2022/04/26 10:39:32;;;;;;;;;6.25;5.00;;;;;13.46;52.74;-18854.41;5019690;28;9811;-69
2022/04/26 10:42:01;;;;;;;;;6.25;4.75;;;;;13.00;54.46;-18840.84;5007540;28;9713;-69
2022/04/26 10:44:31;;;;;;;;;6.50;5.50;;;;;13.11;54.29;-18844.16;5023688;28;9826;-69
2022/04/26 10:47:01;;;;;;;;;3.00;3.00;;;;;13.75;52.68;-18863.13;5022612;28;9883;-69
2022/04/26 10:49:35;;;;;;;;;10.75;6.75;;;;;13.52;52.81;-18856.22;5004342;28;10668;-68
2022/04/26 10:52:10;;;;;;;;;10.25;7.75;;;;;14.20;50.63;-18876.25;5018521;28;9874;-69
2022/04/26 10:54:51;;;;;;;;;8.00;6.00;;;;;14.39;50.58;-18881.97;5020412;28;9996;-69
2022/04/26 10:57:20;;;;;;;;;7.00;7.00;;;;;13.71;51.78;-18861.78;5018748;28;9962;-69
2022/04/26 11:00:02;;;;;;;;;6.25;6.25;;;;;13.21;54.13;-18847.03;5019475;28;9750;-69
2022/04/26 11:02:40;;;;;;;;;7.50;7.50;;;;;13.37;53.81;-18851.84;5007372;28;9756;-69
2022/04/26 11:05:18;;;;;;;;;8.25;6.75;;;;;13.26;53.68;-18848.38;5017432;28;9890;-69
2022/04/26 11:07:47;;;;;;;;;5.00;5.00;;;;;13.23;53.48;-18847.78;5016685;28;9713;-69
2022/04/26 11:10:15;;;;;;;;;6.00;6.00;;;;;13.26;53.68;-18848.38;5019447;28;9802;-69
2022/04/26 11:12:43;;;;;;;;;8.00;7.50;;;;;13.22;54.47;-18847.47;5017020;28;9882;-69
2022/04/26 11:15:19;;;;;;;;;3.25;2.25;;;;;13.05;53.66;-18842.34;5012654;28;9919;-69
2022/04/26 11:17:47;;;;;;;;;5.25;5.25;;;;;12.98;54.57;-18840.22;5014422;28;9781;-69
2022/04/26 11:20:16;;;;;;;;;5.25;5.00;;;;;13.33;52.55;-18850.63;5015749;28;10664;-68
2022/04/26 11:22:48;;;;;;;;;6.00;6.00;;;;;12.96;52.52;-18839.63;5007040;28;9682;-69
2022/04/26 11:28:09;;;;;;;;;9.00;5.50;;;;;13.02;50.82;-18841.28;5014226;28;9686;-69
2022/04/26 11:30:43;;;;;;;;;6.75;6.00;;;;;13.86;48.21;-18866.28;5017292;28;9940;-68
2022/04/26 11:33:22;;;;;;;;;5.25;4.25;;;;;13.69;46.33;-18861.31;5017131;28;10152;-69
2022/04/26 11:35:52;;;;;;;;;8.50;3.00;;;;;14.36;44.03;-18881.19;5016623;28;10057;-68
2022/04/26 11:38:21;;;;;;;;;5.50;5.25;;;;;14.27;47.48;-18878.34;5005563;28;9909;-69
2022/04/26 11:40:50;;;;;;;;;7.25;5.75;;;;;13.66;49.17;-18860.28;5016234;28;9587;-68
2022/04/26 11:43:20;;;;;;;;;5.00;5.00;;;;;13.00;51.10;-18840.69;4997832;28;9625;-68
2022/04/26 11:45:48;;;;;;;;;3.50;3.00;;;;;12.78;51.06;-18834.34;5016606;28;9793;-69
2022/04/26 11:48:20;;;;;;;;;6.25;6.25;;;;;13.05;51.30;-18842.34;5015956;28;9741;-69
2022/04/26 11:50:49;;;;;;;;;7.75;6.50;;;;;13.57;50.87;-18857.56;5014578;28;9698;-68
2022/04/26 11:53:17;;;;;;;;;8.50;7.00;;;;;13.12;51.52;-18844.44;5015529;28;9735;-69
2022/04/26 11:55:46;;;;;;;;;7.75;6.00;;;;;12.80;52.38;-18834.81;5015826;28;11020;-69
2022/04/26 11:58:17;;;;;;;;;5.50;5.50;;;;;13.21;52.02;-18847.16;4999801;28;10026;-68
2022/04/26 12:01:02;;;;;;;;;7.75;7.75;;;;;13.40;51.57;-18852.59;5000246;28;9678;-70
2022/04/26 12:03:32;;;;;;;;;5.50;4.50;;;;;13.02;52.85;-18841.44;5013234;28;10017;-70
2022/04/26 12:06:01;;;;;;;;;5.00;5.00;;;;;13.70;51.10;-18861.63;5012240;28;9846;-71
2022/04/26 12:08:34;;;;;;;;;6.75;5.75;;;;;13.84;49.83;-18865.84;5012904;28;9810;-69
2022/04/26 12:11:18;;;;;;;;;6.00;2.25;;;;;13.66;50.76;-18860.28;5019940;28;9938;-71
2022/04/26 12:13:45;;;;;;;;;5.75;5.00;;;;;13.32;51.23;-18850.34;5017115;28;9765;-70
2022/04/26 12:16:16;;;;;;;;;8.00;6.00;;;;;12.90;52.43;-18837.81;5017420;28;9954;-70
2022/04/26 12:18:51;;;;;;;;;7.00;6.50;;;;;12.76;52.16;-18833.59;5020502;28;10556;-69
2022/04/26 12:21:18;;;;;;;;;9.25;8.25;;;;;12.28;53.69;-18819.59;5020901;28;9952;-69
2022/04/26 12:23:45;;;;;;;;;6.50;6.25;;;;;12.68;53.96;-18831.34;5028403;28;10117;-70
2022/04/26 12:26:11;;;;;;;;;7.00;6.00;;;;;12.79;52.58;-18834.50;5031273;28;9965;-68
2022/04/26 12:28:48;;;;;;;;;9.00;6.50;;;;;12.44;53.40;-18824.09;5031124;28;9824;-70
2022/04/26 12:31:26;;;;;;;;;6.75;6.00;;;;;12.80;53.40;-18834.81;5028887;28;10139;-70
2022/04/26 12:34:12;;;;;;;;;7.25;4.75;;;;;13.09;52.39;-18843.41;5025343;28;9898;-69
2022/04/26 12:36:49;;;;;;;;;6.50;6.50;;;;;12.52;53.46;-18826.53;5030773;28;10731;-71
2022/04/26 12:39:15;;;;;;;;;5.25;5.25;;;;;12.41;54.08;-18823.34;5028793;28;10066;-69
2022/04/26 12:41:49;;;;;;;;;6.00;6.00;;;;;12.43;53.92;-18823.81;5030995;28;9938;-70
2022/04/26 12:44:15;;;;;;;;;6.00;5.00;;;;;12.68;53.93;-18831.19;5030117;28;10019;-70
2022/04/26 12:52:50;;;;;;;;;10.00;6.50;;;;;12.43;53.78;-18823.81;5024734;28;9858;-71
2022/04/26 12:55:31;;;;;;;;;6.25;6.25;;;;;12.22;54.66;-18817.78;5028662;28;10073;-71
2022/04/26 12:58:06;;;;;;;;;10.50;8.25;;;;;12.23;54.29;-18817.94;5026359;28;10060;-70
2022/04/26 13:00:39;;;;;;;;;11.25;9.75;;;;;12.73;53.82;-18832.69;5027462;28;10088;-70
2022/04/26 13:03:07;;;;;;;;;7.25;6.50;;;;;12.74;55.19;-18833.00;5004648;28;10205;-70
2022/04/26 13:05:46;;;;;;;;;8.50;8.50;;;;;12.83;54.04;-18835.72;5028654;28;10101;-70
2022/04/26 13:08:15;;;;;;;;;6.00;6.00;;;;;12.37;53.77;-18822.00;5030355;28;10183;-70
2022/04/26 13:10:42;;;;;;;;;7.00;7.00;;;;;12.46;53.59;-18824.88;5030322;28;10005;-68
2022/04/26 13:13:10;;;;;;;;;6.25;6.25;;;;;12.62;54.14;-18829.69;5030474;28;10119;-71
2022/04/26 13:15:37;;;;;;;;;6.75;6.75;;;;;12.48;54.85;-18825.31;5027674;28;9950;-70
2022/04/26 13:18:05;;;;;;;;;9.00;9.00;;;;;12.42;52.88;-18823.66;5021340;28;10004;-70
2022/04/26 13:20:32;;;;;;;;;9.50;9.50;;;;;12.39;54.19;-18822.75;5024675;28;10167;-70
2022/04/26 13:23:00;;;;;;;;;9.00;6.00;;;;;12.57;54.36;-18828.03;5027330;28;10024;-68
2022/04/26 13:25:26;;;;;;;;;7.75;7.75;;;;;12.42;51.80;-18823.66;5027623;28;10021;-69
2022/04/26 13:27:53;;;;;;;;;5.75;5.75;;;;;12.65;51.35;-18830.28;5024957;28;10743;-70
2022/04/26 13:30:20;;;;;;;;;6.25;5.50;;;;;12.77;49.93;-18833.91;5025053;28;9991;-70
2022/04/26 13:32:46;;;;;;;;;4.25;4.25;;;;;12.88;49.85;-18837.22;5011118;28;10625;-70
2022/04/26 13:35:13;;;;;;;;;6.00;6.00;;;;;13.19;49.06;-18846.56;5021525;28;10155;-69
2022/04/26 13:37:39;;;;;;;;;6.25;5.50;;;;;13.13;49.36;-18844.59;5019343;28;9878;-70
2022/04/26 13:40:06;;;;;;;;;6.50;6.50;;;;;13.23;49.69;-18847.63;5000884;28;9736;-71
2022/04/26 13:42:35;;;;;;;;;7.00;7.00;;;;;13.16;49.03;-18845.66;5014706;28;9989;-69
2022/04/26 13:45:03;;;;;;;;;10.00;7.75;;;;;13.06;49.19;-18842.63;5005815;28;9959;-70
2022/04/26 13:47:30;;;;;;;;;7.25;6.25;;;;;12.99;48.80;-18840.38;5015906;28;9955;-69
2022/04/26 13:49:57;;;;;;;;;5.00;5.00;;;;;13.21;49.10;-18847.16;5014635;28;9856;-70
2022/04/26 13:52:24;;;;;;;;;5.50;5.00;;;;;13.51;47.55;-18856.06;5002493;28;9744;-69
2022/04/26 13:54:50;;;;;;;;;4.50;3.50;;;;;13.95;46.96;-18869.00;5014378;28;9964;-70
2022/04/26 13:57:17;;;;;;;;;5.25;5.00;;;;;13.37;47.22;-18851.84;5014736;28;9621;-69
2022/04/26 13:59:45;;;;;;;;;6.00;6.00;;;;;13.04;47.76;-18842.03;5014289;28;9547;-70
2022/04/26 14:02:12;;;;;;;;;5.25;3.00;;;;;13.15;48.33;-18845.22;5000311;28;9699;-69
2022/04/26 14:04:40;;;;;;;;;7.00;5.50;;;;;13.37;48.33;-18851.69;5017984;28;9595;-71
2022/04/26 14:07:07;;;;;;;;;4.00;4.00;;;;;13.54;47.13;-18856.81;5017522;28;9848;-70
2022/04/26 14:09:33;;;;;;;;;3.00;3.00;;;;;13.76;46.33;-18863.44;5015155;28;9747;-70
2022/04/26 14:12:02;;;;;;;;;3.00;3.00;;;;;13.99;44.19;-18870.06;5016290;28;9469;-70
2022/04/26 14:22:44;;;;;;;;;6.00;4.75;;;;;13.77;43.87;-18863.59;5015970;28;9611;-70
2022/04/26 14:25:12;;;;;;;;;5.25;3.50;;;;;13.77;44.03;-18863.75;5013703;28;9557;-69
2022/04/26 14:27:42;;;;;;;;;3.00;3.00;;;;;13.65;43.95;-18860.13;5004520;28;10543;-69
2022/04/26 14:30:11;;;;;;;;;4.50;2.00;;;;;14.23;44.51;-18877.13;5017797;28;9480;-69
2022/04/26 14:32:57;;;;;;;;;5.00;5.00;;;;;14.24;43.30;-18877.59;5022079;28;9599;-70
2022/04/26 14:35:25;;;;;;;;;3.50;3.50;;;;;14.51;44.26;-18885.41;5016602;28;9535;-70
2022/04/26 14:37:53;;;;;;;;;12.50;11.00;;;;;14.46;43.68;-18884.22;5010460;28;9589;-69
2022/04/26 14:40:20;;;;;;;;;6.00;5.00;;;;;14.70;43.63;-18891.28;5001896;28;9943;-70
2022/04/26 14:42:46;;;;;;;;;2.50;2.50;;;;;14.47;43.84;-18884.38;5015936;28;9796;-69
2022/04/26 14:45:13;;;;;;;;;5.25;5.25;;;;;14.18;43.49;-18875.78;5016019;28;9543;-69
2022/04/26 14:47:43;;;;;;;;;4.00;4.00;;;;;13.89;43.11;-18867.06;5019809;28;9621;-69
2022/04/26 14:50:09;;;;;;;;;3.50;3.50;;;;;13.91;43.74;-18867.66;5017505;28;9484;-69
2022/04/26 14:52:37;;;;;;;;;4.25;3.75;;;;;13.73;44.51;-18862.38;5012679;28;10736;-69
2022/04/26 14:55:07;;;;;;;;;3.00;3.00;;;;;13.84;43.99;-18865.84;5013691;28;9595;-69
2022/04/26 14:57:35;;;;;;;;;4.00;4.00;;;;;13.83;43.77;-18865.53;5003519;28;9812;-69
2022/04/26 15:00:07;;;;;;;;;2.50;2.50;;;;;13.86;44.69;-18866.44;5017826;28;9708;-69
2022/04/26 15:02:41;;;;;;;;;5.50;3.75;;;;;13.60;44.07;-18858.63;5014743;28;9705;-70
2022/04/26 15:05:09;;;;;;;;;4.00;3.00;;;;;13.35;44.61;-18851.22;5013087;28;9675;-69
2022/04/26 15:10:23;;;;;;;;;2.25;2.25;;;;;13.21;44.64;-18847.03;5014470;28;9774;-69
2022/04/26 15:18:21;;;;;;;;;3.25;2.00;;;;;13.18;44.07;-18846.13;5014463;28;9641;-69
2022/04/26 15:20:51;;;;;;;;;5.00;3.00;;;;;13.12;43.98;-18844.44;5013128;28;9528;-70
2022/04/26 15:23:19;;;;;;;;;2.00;2.00;;;;;13.04;44.69;-18841.88;5014882;28;9986;-68
2022/04/26 15:25:50;;;;;;;;;3.75;3.75;;;;;12.99;44.54;-18840.53;5013644;28;9687;-70
2022/04/26 15:28:21;;;;;;;;;3.00;3.00;;;;;12.94;44.04;-18839.19;5014848;28;9695;-69
2022/04/26 15:30:49;;;;;;;;;5.00;3.00;;;;;12.97;44.35;-18839.78;5012697;28;9615;-70
2022/04/26 15:33:17;;;;;;;;;4.00;4.00;;;;;13.20;43.79;-18846.88;4998535;28;9718;-70
2022/04/26 15:35:44;;;;;;;;;3.00;3.00;;;;;13.23;44.19;-18847.78;5018611;28;10269;-70
2022/04/26 15:38:12;;;;;;;;;3.00;3.00;;;;;13.02;44.70;-18841.44;5012755;28;9879;-70
2022/04/26 15:40:40;;;;;;;;;4.25;4.25;;;;;12.91;44.68;-18838.13;5011582;28;9704;-70
2022/04/26 15:43:07;;;;;;;;;3.00;3.00;;;;;12.85;44.83;-18836.31;4993100;28;9692;-69
2022/04/26 15:45:33;;;;;;;;;6.50;4.50;;;;;12.65;45.49;-18830.28;5014323;28;9606;-68
2022/04/26 15:48:00;;;;;;;;;4.25;4.25;;;;;12.50;45.64;-18826.06;5014095;28;10461;-69
2022/04/26 15:50:28;;;;;;;;;2.25;2.25;;;;;12.50;45.07;-18825.91;5025247;28;9868;-69
2022/04/26 15:52:55;;;;;;;;;5.50;4.00;;;;;12.37;45.73;-18822.00;5026808;28;9761;-68